Time,TemperatureF,DewpointF,PressureIn,WindDirection,WindDirectionDegrees,WindSpeedMPH,WindSpeedGustMPH,Humidity,HourlyPrecipIn,Conditions,Clouds,dailyrainin,SoftwareType,DateUTC
2013-05-20 00:02:00,71.8,36.0,29.55,East,93,2.2,3.1,27,0.00,,FEW120,0.00,VWS V14.01,2013-05-20 05:02:00,
2013-05-20 00:08:00,71.4,36.7,29.55,ESE,113,5.4,6.3,28,0.00,,FEW120,0.00,VWS V14.01,2013-05-20 05:08:00,
2013-05-20 00:13:00,71.2,36.5,29.55,ESE,118,2.2,5.8,28,0.00,,FEW120,0.00,VWS V14.01,2013-05-20 05:13:00,
2013-05-20 00:19:00,71.2,37.4,29.55,ESE,103,3.6,5.8,29,0.00,,FEW120,0.00,VWS V14.01,2013-05-20 05:19:00,
2013-05-20 00:25:00,71.2,36.5,29.55,ESE,122,3.1,6.3,28,0.00,,FEW120,0.00,VWS V14.01,2013-05-20 05:25:00,
2013-05-20 00:30:00,71.2,36.5,29.55,ESE,106,5.8,8.3,28,0.00,,FEW120,0.00,VWS V14.01,2013-05-20 05:30:00,
2013-05-20 00:36:00,71.2,36.5,29.55,ESE,119,8.1,10.5,28,0.00,,FEW120,0.00,VWS V14.01,2013-05-20 05:36:00,
2013-05-20 00:41:00,71.1,36.3,29.55,ESE,108,5.4,6.3,28,0.00,,FEW120,0.00,VWS V14.01,2013-05-20 05:41:00,
2013-05-20 00:46:00,71.2,35.6,29.55,East,95,8.1,10.1,27,0.00,,FEW120,0.00,VWS V14.01,2013-05-20 05:46:00,
2013-05-20 00:51:00,71.2,35.6,29.55,ESE,108,6.3,9.6,27,0.00,,FEW120,0.00,VWS V14.01,2013-05-20 05:51:00,
2013-05-20 00:56:00,71.2,34.6,29.55,East,85,11.0,11.0,26,0.00,,FEW120,0.00,VWS V14.01,2013-05-20 05:56:00,
2013-05-20 01:02:00,71.4,33.8,29.58,SSE,148,5.4,6.3,25,0.00,,CLR,0.00,VWS V14.01,2013-05-20 06:02:00,
2013-05-20 01:07:00,71.6,34.0,29.58,SSE,161,3.1,7.6,25,0.00,,CLR,0.00,VWS V14.01,2013-05-20 06:07:00,
2013-05-20 01:13:00,71.6,34.0,29.58,SE,130,3.1,8.1,25,0.00,,CLR,0.00,VWS V14.01,2013-05-20 06:13:00,
2013-05-20 01:19:00,71.6,34.0,29.58,SSW,192,0.0,5.4,25,0.00,,CLR,0.00,VWS V14.01,2013-05-20 06:19:00,
2013-05-20 01:24:00,71.6,34.0,29.58,SSW,205,4.0,6.3,25,0.00,,CLR,0.00,VWS V14.01,2013-05-20 06:24:00,
2013-05-20 01:29:00,71.4,33.8,29.58,South,183,5.8,5.8,25,0.00,,CLR,0.00,VWS V14.01,2013-05-20 06:29:00,
2013-05-20 01:34:00,71.2,33.6,29.58,South,176,7.6,7.6,25,0.00,,CLR,0.00,VWS V14.01,2013-05-20 06:34:00,
2013-05-20 01:40:00,71.1,34.5,29.58,ESE,118,3.6,6.3,26,0.00,,CLR,0.00,VWS V14.01,2013-05-20 06:40:00,
2013-05-20 01:45:00,71.1,34.5,29.58,SSE,159,6.3,6.3,26,0.00,,CLR,0.00,VWS V14.01,2013-05-20 06:45:00,
2013-05-20 01:50:00,70.9,35.3,29.58,SSE,154,4.5,7.2,27,0.00,,CLR,0.00,VWS V14.01,2013-05-20 06:50:00,
2013-05-20 01:55:00,70.9,35.3,29.58,SE,127,2.7,8.1,27,0.00,,CLR,0.00,VWS V14.01,2013-05-20 06:55:00,
2013-05-20 02:01:00,70.9,36.2,29.58,South,185,0.0,4.0,28,0.00,,BKN110,0.00,VWS V14.01,2013-05-20 07:01:00,
2013-05-20 02:07:00,70.9,37.1,29.58,SW,235,8.7,8.7,29,0.00,,BKN110,0.00,VWS V14.01,2013-05-20 07:07:00,
2013-05-20 02:12:00,70.2,39.0,29.58,WSW,241,7.2,15.4,32,0.00,,BKN110,0.00,VWS V14.01,2013-05-20 07:12:00,
2013-05-20 02:18:00,69.1,40.3,29.67,WSW,241,7.6,13.2,35,0.00,,BKN110,0.00,VWS V14.01,2013-05-20 07:18:00,
2013-05-20 02:23:00,66.7,45.3,29.67,SSW,208,5.4,8.3,46,0.05,,BKN110,0.05,VWS V14.01,2013-05-20 07:23:00,
2013-05-20 02:28:00,65.1,50.0,29.67,West,267,5.8,10.5,58,0.22,,BKN110,0.22,VWS V14.01,2013-05-20 07:28:00,
2013-05-20 02:33:00,64.2,53.0,29.67,West,277,0.0,0.0,67,0.22,,BKN110,0.22,VWS V14.01,2013-05-20 07:33:00,
2013-05-20 02:38:00,63.7,52.9,29.67,WSW,245,0.0,0.0,68,0.27,,BKN110,0.27,VWS V14.01,2013-05-20 07:38:00,
2013-05-20 02:43:00,63.1,52.4,29.67,NNW,329,0.0,0.0,68,0.27,,BKN110,0.27,VWS V14.01,2013-05-20 07:43:00,
2013-05-20 02:49:00,63.0,52.6,29.64,North,357,0.0,0.0,69,0.27,,BKN110,0.27,VWS V14.01,2013-05-20 07:49:00,
2013-05-20 02:54:00,63.0,52.6,29.64,North,357,0.0,0.0,69,0.27,,BKN110,0.27,VWS V14.01,2013-05-20 07:54:00,
2013-05-20 03:00:00,63.0,52.6,29.58,North,357,0.0,0.0,69,0.27,,BKN110,0.27,VWS V14.01,2013-05-20 08:00:00,
2013-05-20 03:05:00,62.8,52.9,29.58,North,357,0.0,0.0,70,0.27,,CLR,0.27,VWS V14.01,2013-05-20 08:05:00,
2013-05-20 03:11:00,62.8,52.9,29.58,East,99,0.0,0.0,70,0.27,,CLR,0.27,VWS V14.01,2013-05-20 08:11:00,
2013-05-20 03:17:00,62.8,52.9,29.58,SE,134,0.0,0.0,70,0.27,,CLR,0.27,VWS V14.01,2013-05-20 08:17:00,
2013-05-20 03:22:00,62.6,53.1,29.58,East,92,0.0,5.8,71,0.27,,CLR,0.27,VWS V14.01,2013-05-20 08:22:00,
2013-05-20 03:28:00,62.6,53.1,29.58,ESE,117,0.0,0.0,71,0.16,,CLR,0.27,VWS V14.01,2013-05-20 08:28:00,
2013-05-20 03:33:00,62.4,53.3,29.58,ESE,116,3.6,4.9,72,0.05,,CLR,0.27,VWS V14.01,2013-05-20 08:33:00,
2013-05-20 03:39:00,62.4,53.3,29.58,ESE,115,0.0,4.0,72,0.00,,CLR,0.27,VWS V14.01,2013-05-20 08:39:00,
2013-05-20 03:44:00,62.2,53.1,29.58,ESE,108,0.0,0.0,72,0.00,,CLR,0.27,VWS V14.01,2013-05-20 08:44:00,
2013-05-20 03:49:00,62.2,53.5,29.55,ESE,122,0.0,4.0,73,0.00,,CLR,0.27,VWS V14.01,2013-05-20 08:49:00,
2013-05-20 03:54:00,62.2,53.5,29.55,SE,145,0.0,0.0,73,0.00,,CLR,0.27,VWS V14.01,2013-05-20 08:54:00,
2013-05-20 04:00:00,62.2,53.5,29.55,ESE,104,0.0,3.6,73,0.00,,CLR,0.27,VWS V14.01,2013-05-20 09:00:00,
2013-05-20 04:05:00,62.2,53.5,29.55,ESE,113,0.0,0.0,73,0.00,, +RA,0.27,VWS V14.01,2013-05-20 09:05:00,
2013-05-20 04:11:00,62.2,53.9,29.55,SE,127,0.0,3.1,74,0.00,, +RA,0.27,VWS V14.01,2013-05-20 09:11:00,
2013-05-20 04:16:00,62.1,54.4,29.55,SSE,161,0.0,0.0,76,0.00,, +RA,0.27,VWS V14.01,2013-05-20 09:16:00,
2013-05-20 04:21:00,62.1,54.8,29.55,ESE,104,0.0,2.7,77,0.00,, +RA,0.27,VWS V14.01,2013-05-20 09:21:00,
2013-05-20 04:27:00,61.9,54.6,29.55,SSE,155,0.0,0.0,77,0.00,, +RA,0.27,VWS V14.01,2013-05-20 09:27:00,
2013-05-20 04:32:00,61.9,54.6,29.55,SE,129,0.0,0.0,77,0.00,, +RA,0.27,VWS V14.01,2013-05-20 09:32:00,
2013-05-20 04:37:00,61.9,55.0,29.55,SSE,159,0.0,0.0,78,0.00,, +RA,0.27,VWS V14.01,2013-05-20 09:37:00,
2013-05-20 04:42:00,61.7,55.1,29.55,SSE,156,0.0,0.0,79,0.00,, +RA,0.27,VWS V14.01,2013-05-20 09:42:00,
2013-05-20 04:48:00,61.5,55.0,29.55,ESE,108,2.7,3.1,79,0.00,, +RA,0.27,VWS V14.01,2013-05-20 09:48:00,
2013-05-20 04:53:00,61.3,54.8,29.55,SSE,163,4.9,5.8,79,0.00,, +RA,0.27,VWS V14.01,2013-05-20 09:53:00,
2013-05-20 04:59:00,61.3,54.8,29.55,ESE,121,0.0,2.7,79,0.00,, +RA,0.27,VWS V14.01,2013-05-20 09:59:00,
2013-05-20 05:04:00,61.3,55.5,29.55,ESE,109,0.0,2.7,81,0.00,,CLR,0.27,VWS V14.01,2013-05-20 10:04:00,
2013-05-20 05:10:00,61.2,55.3,29.55,ESE,114,0.0,3.1,81,0.00,,CLR,0.27,VWS V14.01,2013-05-20 10:10:00,
2013-05-20 05:15:00,61.0,55.1,29.55,ESE,115,4.5,4.5,81,0.00,,CLR,0.27,VWS V14.01,2013-05-20 10:15:00,
2013-05-20 05:21:00,61.0,55.1,29.55,East,100,0.0,0.0,81,0.00,,CLR,0.27,VWS V14.01,2013-05-20 10:21:00,
2013-05-20 05:27:00,61.0,55.1,29.55,East,93,6.3,6.3,81,0.00,,CLR,0.27,VWS V14.01,2013-05-20 10:27:00,
2013-05-20 05:32:00,61.0,55.1,29.55,South,183,4.0,5.8,81,0.00,,CLR,0.27,VWS V14.01,2013-05-20 10:32:00,
2013-05-20 05:38:00,61.0,55.1,29.55,South,173,0.0,0.0,81,0.00,,CLR,0.27,VWS V14.01,2013-05-20 10:38:00,
2013-05-20 05:44:00,61.0,55.5,29.55,ESE,114,5.8,5.8,82,0.00,,CLR,0.27,VWS V14.01,2013-05-20 10:44:00,
2013-05-20 05:49:00,61.0,55.5,29.55,ESE,112,3.6,5.4,82,0.00,,CLR,0.27,VWS V14.01,2013-05-20 10:49:00,
2013-05-20 05:54:00,61.0,55.5,29.55,ESE,114,4.0,4.0,82,0.00,,CLR,0.27,VWS V14.01,2013-05-20 10:54:00,
2013-05-20 06:00:00,61.2,55.6,29.55,East,96,3.1,5.8,82,0.00,,CLR,0.27,VWS V14.01,2013-05-20 11:00:00,
2013-05-20 06:06:00,61.2,55.6,29.55,East,97,5.4,5.8,82,0.00,,CLR,0.27,VWS V14.01,2013-05-20 11:06:00,
2013-05-20 06:11:00,61.3,55.8,29.55,ESE,121,8.1,9.6,82,0.00,,CLR,0.27,VWS V14.01,2013-05-20 11:11:00,
2013-05-20 06:17:00,61.7,56.5,29.52,ESE,112,6.3,7.6,83,0.00,,CLR,0.27,VWS V14.01,2013-05-20 11:17:00,
2013-05-20 06:23:00,62.1,56.8,29.52,South,171,2.7,10.1,83,0.00,,CLR,0.27,VWS V14.01,2013-05-20 11:23:00,
2013-05-20 06:28:00,62.2,57.0,29.52,SE,134,5.4,5.8,83,0.00,,CLR,0.27,VWS V14.01,2013-05-20 11:28:00,
2013-05-20 06:34:00,62.6,57.4,29.52,SE,129,8.3,8.3,83,0.00,,CLR,0.27,VWS V14.01,2013-05-20 11:34:00,
2013-05-20 06:39:00,63.0,57.7,29.52,East,95,2.7,3.6,83,0.00,,CLR,0.27,VWS V14.01,2013-05-20 11:39:00,
2013-05-20 06:45:00,63.3,58.1,29.55,SE,130,3.6,3.6,83,0.00,,CLR,0.27,VWS V14.01,2013-05-20 11:45:00,
2013-05-20 06:52:00,63.5,58.2,29.55,SE,137,3.6,3.6,83,0.00,,CLR,0.27,VWS V14.01,2013-05-20 11:52:00,
2013-05-20 06:57:00,63.7,58.4,29.55,SE,146,4.5,4.5,83,0.00,,CLR,0.27,VWS V14.01,2013-05-20 11:57:00,
2013-05-20 07:02:00,64.0,58.8,29.55,SSE,150,0.0,5.8,83,0.00,,CLR,0.27,VWS V14.01,2013-05-20 12:02:00,
2013-05-20 07:08:00,64.6,59.0,29.55,SE,135,3.6,5.4,82,0.00,,CLR,0.27,VWS V14.01,2013-05-20 12:08:00,
2013-05-20 07:14:00,65.1,59.2,29.58,SSE,168,10.5,10.5,81,0.00,,CLR,0.27,VWS V14.01,2013-05-20 12:14:00,
2013-05-20 07:20:00,65.7,54.8,29.58,South,185,8.7,8.7,68,0.00,,CLR,0.27,VWS V14.01,2013-05-20 12:20:00,
2013-05-20 07:25:00,66.0,53.1,29.58,SE,144,5.4,6.3,63,0.00,,CLR,0.27,VWS V14.01,2013-05-20 12:25:00,
2013-05-20 07:31:00,66.7,51.0,29.58,SSE,167,4.9,6.3,57,0.00,,CLR,0.27,VWS V14.01,2013-05-20 12:31:00,
2013-05-20 07:36:00,67.1,48.4,29.58,South,185,10.1,10.1,51,0.00,,CLR,0.27,VWS V14.01,2013-05-20 12:36:00,
2013-05-20 07:41:00,67.5,47.7,29.58,South,179,5.8,7.6,49,0.00,,CLR,0.27,VWS V14.01,2013-05-20 12:41:00,
2013-05-20 07:47:00,67.8,48.0,29.58,ESE,121,3.6,4.0,49,0.00,,CLR,0.27,VWS V14.01,2013-05-20 12:47:00,
2013-05-20 07:52:00,67.8,46.3,29.58,South,185,5.4,7.6,46,0.00,,CLR,0.27,VWS V14.01,2013-05-20 12:52:00,
2013-05-20 07:57:00,68.2,44.9,29.58,SSE,163,7.6,8.7,43,0.00,,CLR,0.27,VWS V14.01,2013-05-20 12:57:00,
2013-05-20 08:02:00,68.5,44.6,29.58,SSE,161,8.1,8.3,42,0.00,,CLR,0.27,VWS V14.01,2013-05-20 13:02:00,
2013-05-20 08:07:00,68.7,44.1,29.58,South,171,0.0,5.8,41,0.00,,CLR,0.27,VWS V14.01,2013-05-20 13:07:00,
2013-05-20 08:13:00,69.3,43.9,29.58,SSE,159,0.0,3.6,40,0.00,,CLR,0.27,VWS V14.01,2013-05-20 13:13:00,
2013-05-20 08:18:00,69.6,43.6,29.58,SSE,159,3.6,5.8,39,0.00,,CLR,0.27,VWS V14.01,2013-05-20 13:18:00,
2013-05-20 08:24:00,70.2,42.0,29.58,SSW,206,3.1,4.0,36,0.00,,CLR,0.27,VWS V14.01,2013-05-20 13:24:00,
2013-05-20 08:30:00,70.3,42.2,29.55,SSW,197,2.7,7.6,36,0.00,,CLR,0.27,VWS V14.01,2013-05-20 13:30:00,
2013-05-20 08:35:00,70.3,41.4,29.55,South,174,0.0,4.0,35,0.00,,CLR,0.27,VWS V14.01,2013-05-20 13:35:00,
2013-05-20 08:41:00,70.3,41.4,29.55,South,183,3.1,3.6,35,0.00,,CLR,0.27,VWS V14.01,2013-05-20 13:41:00,
2013-05-20 08:46:00,70.5,40.8,29.55,South,186,7.2,8.1,34,0.00,,CLR,0.27,VWS V14.01,2013-05-20 13:46:00,
2013-05-20 08:52:00,70.7,41.0,29.55,SSE,150,4.0,8.7,34,0.00,,CLR,0.27,VWS V14.01,2013-05-20 13:52:00,
2013-05-20 08:58:00,70.9,41.1,29.55,South,180,3.1,4.0,34,0.00,,CLR,0.27,VWS V14.01,2013-05-20 13:58:00,
2013-05-20 09:03:00,71.1,40.5,29.58,SSE,167,3.6,8.1,33,0.00,,CLR,0.27,VWS V14.01,2013-05-20 14:03:00,
2013-05-20 09:09:00,71.4,40.8,29.58,SW,221,3.1,8.1,33,0.00,,CLR,0.27,VWS V14.01,2013-05-20 14:09:00,
2013-05-20 09:14:00,71.8,40.4,29.58,SSE,161,4.9,5.8,32,0.00,,CLR,0.27,VWS V14.01,2013-05-20 14:14:00,
2013-05-20 09:20:00,71.8,41.2,29.55,South,175,3.1,8.3,33,0.00,,CLR,0.27,VWS V14.01,2013-05-20 14:20:00,
2013-05-20 09:25:00,71.8,40.4,29.55,SSW,198,5.8,7.6,32,0.00,,CLR,0.27,VWS V14.01,2013-05-20 14:25:00,
2013-05-20 09:31:00,71.8,40.4,29.55,SW,222,2.7,8.7,32,0.00,,CLR,0.27,VWS V14.01,2013-05-20 14:31:00,
2013-05-20 09:37:00,72.1,39.9,29.55,South,177,3.1,8.1,31,0.00,,CLR,0.27,VWS V14.01,2013-05-20 14:37:00,
2013-05-20 09:42:00,72.5,41.0,29.55,SSW,199,6.3,6.3,32,0.00,,CLR,0.27,VWS V14.01,2013-05-20 14:42:00,
2013-05-20 09:47:00,72.7,41.2,29.58,SW,224,2.7,5.8,32,0.00,,CLR,0.27,VWS V14.01,2013-05-20 14:47:00,
2013-05-20 09:52:00,73.0,40.6,29.58,SE,142,5.4,8.3,31,0.00,,CLR,0.27,VWS V14.01,2013-05-20 14:52:00,
2013-05-20 09:57:00,73.4,41.0,29.58,SSW,196,6.3,8.7,31,0.00,,CLR,0.27,VWS V14.01,2013-05-20 14:57:00,
2013-05-20 10:02:00,73.6,39.4,29.58,SW,224,6.3,12.8,29,0.00,,CLR,0.27,VWS V14.01,2013-05-20 15:02:00,
2013-05-20 10:08:00,73.8,38.7,29.58,SSW,202,6.3,10.5,28,0.00,,CLR,0.27,VWS V14.01,2013-05-20 15:08:00,
2013-05-20 10:14:00,73.9,37.9,29.58,SE,146,7.2,13.6,27,0.00,,CLR,0.27,VWS V14.01,2013-05-20 15:14:00,
2013-05-20 10:19:00,73.8,38.7,29.58,SW,214,9.6,11.9,28,0.00,,CLR,0.27,VWS V14.01,2013-05-20 15:19:00,
2013-05-20 10:24:00,73.6,39.4,29.58,SSE,168,6.3,10.1,29,0.00,,CLR,0.27,VWS V14.01,2013-05-20 15:24:00,
2013-05-20 10:29:00,73.6,38.5,29.58,SSW,213,11.4,11.4,28,0.00,,CLR,0.27,VWS V14.01,2013-05-20 15:29:00,
2013-05-20 10:34:00,73.6,38.5,29.58,SW,216,11.4,11.4,28,0.00,,CLR,0.27,VWS V14.01,2013-05-20 15:34:00,
2013-05-20 10:40:00,73.8,38.7,29.58,SW,236,8.7,9.6,28,0.00,,CLR,0.27,VWS V14.01,2013-05-20 15:40:00,
2013-05-20 10:45:00,73.9,38.8,29.58,SSW,196,5.4,11.0,28,0.00,,CLR,0.27,VWS V14.01,2013-05-20 15:45:00,
2013-05-20 10:50:00,73.9,38.8,29.58,South,173,6.3,12.3,28,0.00,,CLR,0.27,VWS V14.01,2013-05-20 15:50:00,
2013-05-20 10:55:00,73.9,38.8,29.58,SW,230,8.1,8.1,28,0.00,,CLR,0.27,VWS V14.01,2013-05-20 15:55:00,
2013-05-20 11:01:00,74.1,39.0,29.58,SW,222,8.1,8.3,28,0.00,,SCT095,0.27,VWS V14.01,2013-05-20 16:01:00,
2013-05-20 11:06:00,74.1,37.1,29.58,SSW,205,8.3,13.2,26,0.00,,SCT095,0.27,VWS V14.01,2013-05-20 16:06:00,
2013-05-20 11:12:00,74.5,37.4,29.58,SW,222,5.4,10.5,26,0.00,,SCT095,0.27,VWS V14.01,2013-05-20 16:12:00,
2013-05-20 11:17:00,74.5,37.4,29.58,South,186,6.7,8.3,26,0.00,,SCT095,0.27,VWS V14.01,2013-05-20 16:17:00,
2013-05-20 11:23:00,74.7,36.5,29.58,South,184,5.8,9.2,25,0.00,,SCT095,0.27,VWS V14.01,2013-05-20 16:23:00,
2013-05-20 11:28:00,75.0,36.8,29.58,SSE,168,3.6,8.1,25,0.00,,SCT095,0.27,VWS V14.01,2013-05-20 16:28:00,
2013-05-20 11:33:00,74.8,34.6,29.58,South,191,11.0,14.1,23,0.00,,SCT095,0.27,VWS V14.01,2013-05-20 16:33:00,
2013-05-20 11:38:00,74.7,34.4,29.58,SSE,159,8.1,8.7,23,0.00,,SCT095,0.27,VWS V14.01,2013-05-20 16:38:00,
2013-05-20 11:44:00,75.2,36.0,29.58,WSW,252,6.3,10.5,24,0.00,,SCT095,0.27,VWS V14.01,2013-05-20 16:44:00,
2013-05-20 11:49:00,75.2,34.9,29.58,WSW,254,6.3,7.6,23,0.00,,SCT095,0.27,VWS V14.01,2013-05-20 16:49:00,
2013-05-20 11:54:00,75.4,35.0,29.58,SW,220,8.1,8.7,23,0.00,,SCT095,0.27,VWS V14.01,2013-05-20 16:54:00,
2013-05-20 11:59:00,75.6,35.2,29.58,WSW,237,8.7,10.1,23,0.00,,SCT095,0.27,VWS V14.01,2013-05-20 16:59:00,
2013-05-20 12:04:00,75.6,34.1,29.58,SSW,204,11.0,11.0,22,0.00,,CLR,0.27,VWS V14.01,2013-05-20 17:04:00,
2013-05-20 12:09:00,75.7,35.3,29.58,SSW,212,11.0,11.0,23,0.00,,CLR,0.27,VWS V14.01,2013-05-20 17:09:00,
2013-05-20 12:14:00,75.6,34.1,29.58,South,190,6.3,10.1,22,0.00,,CLR,0.27,VWS V14.01,2013-05-20 17:14:00,
2013-05-20 12:19:00,75.6,35.2,29.58,SSW,194,3.1,5.4,23,0.00,,CLR,0.27,VWS V14.01,2013-05-20 17:19:00,
2013-05-20 12:25:00,75.9,35.5,29.58,South,180,3.1,4.0,23,0.00,,CLR,0.27,VWS V14.01,2013-05-20 17:25:00,
2013-05-20 12:30:00,76.5,36.0,29.58,South,180,6.3,6.3,23,0.00,,CLR,0.27,VWS V14.01,2013-05-20 17:30:00,
2013-05-20 12:36:00,77.0,35.3,29.58,South,188,8.1,8.1,22,0.00,,CLR,0.27,VWS V14.01,2013-05-20 17:36:00,
2013-05-20 12:41:00,77.4,34.4,29.58,SW,215,4.9,6.3,21,0.00,,CLR,0.27,VWS V14.01,2013-05-20 17:41:00,
2013-05-20 12:47:00,77.7,35.9,29.55,WSW,253,6.7,6.7,22,0.00,,CLR,0.27,VWS V14.01,2013-05-20 17:47:00,
2013-05-20 12:52:00,77.7,34.7,29.55,West,275,4.0,8.3,21,0.00,,CLR,0.27,VWS V14.01,2013-05-20 17:52:00,
2013-05-20 12:58:00,77.9,34.9,29.55,SSE,152,7.6,7.6,21,0.00,,CLR,0.27,VWS V14.01,2013-05-20 17:58:00,
2013-05-20 13:03:00,78.3,35.2,29.58,SSW,213,5.8,11.0,21,0.00,,FEW043,0.27,VWS V14.01,2013-05-20 18:03:00,
2013-05-20 13:08:00,78.4,35.3,29.58,SSW,205,10.1,10.1,21,0.00,,FEW043,0.27,VWS V14.01,2013-05-20 18:08:00,
2013-05-20 13:14:00,78.3,35.2,29.58,SSE,166,5.8,11.9,21,0.00,,FEW043,0.27,VWS V14.01,2013-05-20 18:14:00,
2013-05-20 13:19:00,78.1,35.0,29.58,SSW,202,7.6,7.6,21,0.00,,FEW043,0.27,VWS V14.01,2013-05-20 18:19:00,
2013-05-20 13:25:00,78.3,35.2,29.58,SE,145,4.0,8.3,21,0.00,,FEW043,0.27,VWS V14.01,2013-05-20 18:25:00,
2013-05-20 13:31:00,78.6,35.5,29.58,SSW,209,5.4,11.0,21,0.00,,FEW043,0.27,VWS V14.01,2013-05-20 18:31:00,
2013-05-20 13:36:00,79.0,35.8,29.58,SSW,201,5.4,9.6,21,0.00,,FEW043,0.27,VWS V14.01,2013-05-20 18:36:00,
2013-05-20 13:41:00,79.3,34.8,29.58,SW,231,8.3,9.6,20,0.00,,FEW043,0.27,VWS V14.01,2013-05-20 18:41:00,
2013-05-20 13:46:00,79.2,35.9,29.58,SW,222,8.3,8.3,21,0.00,,FEW043,0.27,VWS V14.01,2013-05-20 18:46:00,
2013-05-20 13:51:00,78.8,34.4,29.58,SSE,162,6.3,9.6,20,0.00,,FEW043,0.27,VWS V14.01,2013-05-20 18:51:00,
2013-05-20 13:56:00,79.0,34.5,29.58,SW,216,5.4,8.1,20,0.00,,FEW043,0.27,VWS V14.01,2013-05-20 18:56:00,
2013-05-20 14:02:00,79.3,34.8,29.55,WSW,252,7.6,8.3,20,0.00,,CLR,0.27,VWS V14.01,2013-05-20 19:02:00,
2013-05-20 14:07:00,79.7,35.1,29.55,South,177,6.3,10.5,20,0.00,,CLR,0.27,VWS V14.01,2013-05-20 19:07:00,
2013-05-20 14:13:00,80.1,35.4,29.55,South,170,10.1,10.1,20,0.00,,CLR,0.27,VWS V14.01,2013-05-20 19:13:00,
2013-05-20 14:18:00,80.1,35.4,29.55,West,280,10.1,10.1,20,0.00,,CLR,0.27,VWS V14.01,2013-05-20 19:18:00,
2013-05-20 14:24:00,79.7,35.1,29.55,SSW,195,12.3,12.3,20,0.00,,CLR,0.27,VWS V14.01,2013-05-20 19:24:00,
2013-05-20 14:30:00,80.2,35.6,29.55,SSE,147,10.1,10.1,20,0.00,,CLR,0.27,VWS V14.01,2013-05-20 19:30:00,
2013-05-20 14:35:00,80.2,35.6,29.55,SW,215,8.1,12.3,20,0.00,,CLR,0.27,VWS V14.01,2013-05-20 19:35:00,
2013-05-20 14:40:00,79.9,35.3,29.55,SW,232,7.6,11.0,20,0.00,,CLR,0.27,VWS V14.01,2013-05-20 19:40:00,
2013-05-20 14:45:00,80.1,35.4,29.55,SSW,193,10.1,12.3,20,0.00,,CLR,0.27,VWS V14.01,2013-05-20 19:45:00,
2013-05-20 14:50:00,80.6,35.9,29.55,SW,226,3.6,8.3,20,0.00,,CLR,0.27,VWS V14.01,2013-05-20 19:50:00,
2013-05-20 14:56:00,81.1,36.3,29.55,SW,218,3.6,10.1,20,0.00,,CLR,0.27,VWS V14.01,2013-05-20 19:56:00,
2013-05-20 15:01:00,81.3,36.5,29.55,SE,135,8.1,8.1,20,0.00,,CLR,0.27,VWS V14.01,2013-05-20 20:01:00,
2013-05-20 15:07:00,81.1,36.3,29.55,SSW,213,12.3,12.3,20,0.00,,CLR,0.27,VWS V14.01,2013-05-20 20:07:00,
2013-05-20 15:13:00,80.6,35.9,29.55,WSW,239,7.2,11.0,20,0.00,,CLR,0.27,VWS V14.01,2013-05-20 20:13:00,
2013-05-20 15:18:00,80.8,36.0,29.55,SSW,206,8.7,10.5,20,0.00,,CLR,0.27,VWS V14.01,2013-05-20 20:18:00,
2013-05-20 15:24:00,80.6,35.9,29.55,SW,232,12.3,12.3,20,0.00,,CLR,0.27,VWS V14.01,2013-05-20 20:24:00,
2013-05-20 15:29:00,80.6,35.9,29.55,SSW,203,6.3,15.0,20,0.00,,CLR,0.27,VWS V14.01,2013-05-20 20:29:00,
2013-05-20 15:35:00,80.6,35.9,29.55,South,179,7.6,10.5,20,0.00,,CLR,0.27,VWS V14.01,2013-05-20 20:35:00,
2013-05-20 15:40:00,81.0,36.2,29.55,SSW,196,13.2,13.2,20,0.00,,CLR,0.27,VWS V14.01,2013-05-20 20:40:00,
2013-05-20 15:46:00,80.8,36.0,29.55,SSW,193,12.8,12.8,20,0.00,,CLR,0.27,VWS V14.01,2013-05-20 20:46:00,
2013-05-20 15:52:00,80.6,35.9,29.55,SW,234,11.0,12.8,20,0.00,,CLR,0.27,VWS V14.01,2013-05-20 20:52:00,
2013-05-20 15:58:00,80.4,35.7,29.55,South,184,10.1,10.1,20,0.00,,CLR,0.27,VWS V14.01,2013-05-20 20:58:00,
2013-05-20 16:03:00,80.2,35.6,29.55,SSE,163,6.3,15.4,20,0.00,,CLR,0.27,VWS V14.01,2013-05-20 21:03:00,
2013-05-20 16:09:00,80.4,35.7,29.55,South,181,8.7,14.1,20,0.00,,CLR,0.27,VWS V14.01,2013-05-20 21:09:00,
2013-05-20 16:14:00,80.4,35.7,29.55,SSW,204,15.0,15.0,20,0.00,,CLR,0.27,VWS V14.01,2013-05-20 21:14:00,
2013-05-20 16:20:00,80.8,36.0,29.55,WSW,238,5.4,13.2,20,0.00,,CLR,0.27,VWS V14.01,2013-05-20 21:20:00,
2013-05-20 16:25:00,81.3,36.5,29.55,SSW,213,5.4,8.3,20,0.00,,CLR,0.27,VWS V14.01,2013-05-20 21:25:00,
2013-05-20 16:30:00,81.1,36.3,29.55,SSW,210,10.1,10.1,20,0.00,,CLR,0.27,VWS V14.01,2013-05-20 21:30:00,
2013-05-20 16:35:00,81.3,36.5,29.55,SW,214,10.1,10.1,20,0.00,,CLR,0.27,VWS V14.01,2013-05-20 21:35:00,
2013-05-20 16:40:00,81.5,36.6,29.55,SW,214,5.4,8.3,20,0.00,,CLR,0.27,VWS V14.01,2013-05-20 21:40:00,
2013-05-20 16:46:00,81.9,36.9,29.55,SSW,194,4.5,8.7,20,0.00,,CLR,0.27,VWS V14.01,2013-05-20 21:46:00,
2013-05-20 16:51:00,81.1,36.3,29.55,East,101,10.5,14.5,20,0.00,,CLR,0.27,VWS V14.01,2013-05-20 21:51:00,
2013-05-20 16:56:00,81.1,36.3,29.55,SW,219,5.4,7.6,20,0.00,,CLR,0.27,VWS V14.01,2013-05-20 21:56:00,
2013-05-20 17:01:00,81.5,36.6,29.55,South,172,10.1,10.1,20,0.00,,CLR,0.27,VWS V14.01,2013-05-20 22:01:00,
2013-05-20 17:07:00,81.1,36.3,29.55,SSW,207,8.3,15.4,20,0.00,,CLR,0.27,VWS V14.01,2013-05-20 22:07:00,
2013-05-20 17:12:00,81.3,36.5,29.55,South,190,10.5,12.8,20,0.00,,CLR,0.27,VWS V14.01,2013-05-20 22:12:00,
2013-05-20 17:18:00,81.3,36.5,29.55,SW,214,6.3,12.8,20,0.00,,CLR,0.27,VWS V14.01,2013-05-20 22:18:00,
2013-05-20 17:23:00,81.7,36.8,29.55,SSW,210,5.8,6.3,20,0.00,,CLR,0.27,VWS V14.01,2013-05-20 22:23:00,
2013-05-20 17:28:00,81.7,36.8,29.55,SSW,200,6.3,11.0,20,0.00,,CLR,0.27,VWS V14.01,2013-05-20 22:28:00,
2013-05-20 17:33:00,81.5,36.6,29.55,SSE,150,6.3,9.6,20,0.00,,CLR,0.27,VWS V14.01,2013-05-20 22:33:00,
2013-05-20 17:38:00,81.7,36.8,29.55,SSW,213,8.1,8.1,20,0.00,,CLR,0.27,VWS V14.01,2013-05-20 22:38:00,
2013-05-20 17:43:00,81.0,36.2,29.55,SSE,159,5.8,13.2,20,0.00,,CLR,0.27,VWS V14.01,2013-05-20 22:43:00,
2013-05-20 17:49:00,81.0,36.2,29.52,South,190,8.1,8.1,20,0.00,,CLR,0.27,VWS V14.01,2013-05-20 22:49:00,
2013-05-20 17:54:00,80.8,36.0,29.52,South,171,4.9,10.1,20,0.00,,CLR,0.27,VWS V14.01,2013-05-20 22:54:00,
2013-05-20 18:00:00,80.8,36.0,29.52,SSE,168,6.3,12.3,20,0.00,,CLR,0.27,VWS V14.01,2013-05-20 23:00:00,
2013-05-20 18:05:00,81.0,36.2,29.52,South,183,4.9,7.2,20,0.00,,CLR,0.27,VWS V14.01,2013-05-20 23:05:00,
2013-05-20 18:10:00,80.8,36.0,29.52,SW,223,5.8,8.1,20,0.00,,CLR,0.27,VWS V14.01,2013-05-20 23:10:00,
2013-05-20 18:15:00,80.8,36.0,29.52,SW,219,8.3,15.0,20,0.00,,CLR,0.27,VWS V14.01,2013-05-20 23:15:00,
2013-05-20 18:21:00,80.8,36.0,29.52,WSW,239,4.0,11.0,20,0.00,,CLR,0.27,VWS V14.01,2013-05-20 23:21:00,
2013-05-20 18:26:00,81.0,36.2,29.52,South,187,6.3,8.3,20,0.00,,CLR,0.27,VWS V14.01,2013-05-20 23:26:00,
2013-05-20 18:31:00,81.0,36.2,29.52,SW,220,4.0,8.1,20,0.00,,CLR,0.27,VWS V14.01,2013-05-20 23:31:00,
2013-05-20 18:37:00,80.8,36.0,29.52,West,261,5.4,5.8,20,0.00,,CLR,0.27,VWS V14.01,2013-05-20 23:37:00,
2013-05-20 18:42:00,80.2,35.6,29.52,SSW,194,5.4,8.7,20,0.00,,CLR,0.27,VWS V14.01,2013-05-20 23:42:00,
2013-05-20 18:48:00,79.7,35.1,29.52,SSW,211,4.0,4.0,20,0.00,,CLR,0.27,VWS V14.01,2013-05-20 23:48:00,
2013-05-20 18:53:00,79.5,35.0,29.52,SW,234,4.0,4.9,20,0.00,,CLR,0.27,VWS V14.01,2013-05-20 23:53:00,
2013-05-20 18:58:00,79.5,35.0,29.52,South,187,2.7,6.3,20,0.00,,CLR,0.27,VWS V14.01,2013-05-20 23:58:00,
2013-05-20 19:03:00,79.5,35.0,29.52,SW,221,5.8,5.8,20,0.00,,CLR,0.27,VWS V14.01,2013-05-21 00:03:00,
2013-05-20 19:08:00,79.2,34.7,29.52,South,180,0.0,3.1,20,0.00,,CLR,0.27,VWS V14.01,2013-05-21 00:08:00,
2013-05-20 19:13:00,79.2,34.7,29.52,SW,215,3.1,4.9,20,0.00,,CLR,0.27,VWS V14.01,2013-05-21 00:13:00,
2013-05-20 19:18:00,78.8,34.4,29.52,SSW,213,0.0,3.6,20,0.00,,CLR,0.27,VWS V14.01,2013-05-21 00:18:00,
2013-05-20 19:23:00,78.3,35.2,29.52,SW,233,0.0,3.1,21,0.00,,CLR,0.27,VWS V14.01,2013-05-21 00:23:00,
2013-05-20 19:29:00,77.7,34.7,29.52,SSW,209,0.0,0.0,21,0.00,,CLR,0.27,VWS V14.01,2013-05-21 00:29:00,
2013-05-20 19:34:00,77.4,34.4,29.55,West,262,6.3,6.3,21,0.00,,CLR,0.27,VWS V14.01,2013-05-21 00:34:00,
2013-05-20 19:39:00,77.0,34.1,29.55,SW,232,7.2,10.1,21,0.00,,CLR,0.27,VWS V14.01,2013-05-21 00:39:00,
2013-05-20 19:45:00,76.8,35.1,29.52,SSW,206,3.1,3.6,22,0.00,,CLR,0.27,VWS V14.01,2013-05-21 00:45:00,
2013-05-20 19:51:00,76.6,35.0,29.52,WSW,244,3.1,3.6,22,0.00,,CLR,0.27,VWS V14.01,2013-05-21 00:51:00,
2013-05-20 19:56:00,76.5,34.8,29.52,South,186,2.7,4.9,22,0.00,,CLR,0.27,VWS V14.01,2013-05-21 00:56:00,
2013-05-20 20:02:00,75.9,34.4,29.55,SSW,210,0.0,2.2,22,0.00,,CLR,0.27,VWS V14.01,2013-05-21 01:02:00,
2013-05-20 20:08:00,75.6,34.1,29.55,SW,215,0.0,0.0,22,0.00,,CLR,0.27,VWS V14.01,2013-05-21 01:08:00,
2013-05-20 20:14:00,75.0,34.7,29.55,SSW,212,0.0,0.0,23,0.00,,CLR,0.27,VWS V14.01,2013-05-21 01:14:00,
2013-05-20 20:20:00,74.5,35.4,29.55,SSW,212,2.7,2.7,24,0.00,,CLR,0.27,VWS V14.01,2013-05-21 01:20:00,
2013-05-20 20:25:00,74.1,35.1,29.55,SSW,207,2.2,3.1,24,0.00,,CLR,0.27,VWS V14.01,2013-05-21 01:25:00,
2013-05-20 20:30:00,73.8,35.8,29.55,SSW,205,0.0,0.0,25,0.00,,CLR,0.27,VWS V14.01,2013-05-21 01:30:00,
2013-05-20 20:35:00,73.6,35.6,29.55,SSW,205,0.0,0.0,25,0.00,,CLR,0.27,VWS V14.01,2013-05-21 01:35:00,
2013-05-20 20:41:00,73.2,35.3,29.55,SSW,205,0.0,0.0,25,0.00,,CLR,0.27,VWS V14.01,2013-05-21 01:41:00,
2013-05-20 20:47:00,73.0,36.2,29.52,SSW,205,0.0,0.0,26,0.00,,CLR,0.27,VWS V14.01,2013-05-21 01:47:00,
2013-05-20 20:52:00,72.7,35.8,29.52,SSW,202,0.0,0.0,26,0.00,,CLR,0.27,VWS V14.01,2013-05-21 01:52:00,
2013-05-20 20:57:00,72.3,36.5,29.52,SSW,201,0.0,0.0,27,0.00,,CLR,0.27,VWS V14.01,2013-05-21 01:57:00,
2013-05-20 21:02:00,72.0,38.0,29.52,South,183,0.0,0.0,29,0.00,,CLR,0.27,VWS V14.01,2013-05-21 02:02:00,
2013-05-20 21:08:00,71.8,37.8,29.52,SSW,198,0.0,0.0,29,0.00,,CLR,0.27,VWS V14.01,2013-05-21 02:08:00,
2013-05-20 21:13:00,71.4,39.2,29.52,SSW,195,0.0,0.0,31,0.00,,CLR,0.27,VWS V14.01,2013-05-21 02:13:00,
2013-05-20 21:19:00,71.2,39.9,29.55,SSE,168,3.6,3.6,32,0.00,,CLR,0.27,VWS V14.01,2013-05-21 02:19:00,
2013-05-20 21:24:00,71.2,39.9,29.55,SSW,197,0.0,2.7,32,0.00,,CLR,0.27,VWS V14.01,2013-05-21 02:24:00,
2013-05-20 21:30:00,71.2,39.9,29.55,SSW,211,0.0,0.0,32,0.00,,CLR,0.27,VWS V14.01,2013-05-21 02:30:00,
2013-05-20 21:36:00,71.1,39.7,29.55,SW,214,0.0,0.0,32,0.00,,CLR,0.27,VWS V14.01,2013-05-21 02:36:00,
2013-05-20 21:41:00,71.1,39.7,29.55,SW,214,0.0,0.0,32,0.00,,CLR,0.27,VWS V14.01,2013-05-21 02:41:00,
2013-05-20 21:46:00,70.9,39.6,29.55,SW,214,0.0,0.0,32,0.00,,CLR,0.27,VWS V14.01,2013-05-21 02:46:00,
2013-05-20 21:52:00,70.7,39.4,29.55,SW,214,0.0,0.0,32,0.00,,CLR,0.27,VWS V14.01,2013-05-21 02:52:00,
2013-05-20 21:58:00,70.3,39.1,29.55,SW,214,0.0,0.0,32,0.00,,CLR,0.27,VWS V14.01,2013-05-21 02:58:00,
2013-05-20 22:03:00,70.2,39.0,29.55,SW,214,0.0,0.0,32,0.00,,CLR,0.27,VWS V14.01,2013-05-21 03:03:00,
2013-05-20 22:08:00,70.0,38.8,29.55,SE,146,0.0,0.0,32,0.00,,CLR,0.27,VWS V14.01,2013-05-21 03:08:00,
2013-05-20 22:14:00,69.8,38.6,29.55,SSE,161,0.0,2.7,32,0.00,,CLR,0.27,VWS V14.01,2013-05-21 03:14:00,
2013-05-20 22:19:00,69.6,39.3,29.55,South,172,0.0,0.0,33,0.00,,CLR,0.27,VWS V14.01,2013-05-21 03:19:00,
2013-05-20 22:25:00,69.4,39.1,29.55,South,172,0.0,0.0,33,0.00,,CLR,0.27,VWS V14.01,2013-05-21 03:25:00,
2013-05-20 22:30:00,69.3,39.0,29.55,South,172,0.0,0.0,33,0.00,,CLR,0.27,VWS V14.01,2013-05-21 03:30:00,
2013-05-20 22:36:00,69.1,38.8,29.55,South,172,0.0,0.0,33,0.00,,CLR,0.27,VWS V14.01,2013-05-21 03:36:00,
2013-05-20 22:42:00,68.9,38.6,29.55,South,172,0.0,0.0,33,0.00,,CLR,0.27,VWS V14.01,2013-05-21 03:42:00,
2013-05-20 22:47:00,68.7,38.5,29.52,South,171,0.0,0.0,33,0.00,,CLR,0.27,VWS V14.01,2013-05-21 03:47:00,
2013-05-20 22:53:00,68.5,39.1,29.52,South,170,0.0,0.0,34,0.00,,CLR,0.27,VWS V14.01,2013-05-21 03:53:00,
2013-05-20 22:58:00,68.5,39.1,29.52,South,170,0.0,0.0,34,0.00,,CLR,0.27,VWS V14.01,2013-05-21 03:58:00,
2013-05-20 23:01:00,68.5,39.1,29.52,South,170,0.0,0.0,34,0.00,,CLR,0.27,VWS V14.01,2013-05-21 04:01:00,
2013-05-20 23:02:00,68.5,39.1,29.52,South,170,0.0,0.0,34,0.00,,CLR,0.27,VWS V14.01,2013-05-21 04:02:00,
2013-05-20 23:03:00,68.5,39.8,29.52,South,170,0.0,0.0,35,0.00,,CLR,0.27,VWS V14.01,2013-05-21 04:03:00,
2013-05-20 23:08:00,68.5,39.8,29.52,South,170,0.0,0.0,35,0.00,,CLR,0.27,VWS V14.01,2013-05-21 04:08:00,
2013-05-20 23:09:00,68.7,40.0,29.52,South,170,0.0,0.0,35,0.00,,CLR,0.27,VWS V14.01,2013-05-21 04:09:00,
2013-05-20 23:13:00,68.7,40.0,29.52,SSE,155,0.0,0.0,35,0.00,,CLR,0.27,VWS V14.01,2013-05-21 04:13:00,
2013-05-20 23:18:00,68.7,40.0,29.55,SSE,157,0.0,0.0,35,0.00,,CLR,0.27,VWS V14.01,2013-05-21 04:18:00,
2013-05-20 23:24:00,68.7,40.0,29.55,SSE,151,0.0,0.0,35,0.00,,CLR,0.27,VWS V14.01,2013-05-21 04:24:00,
2013-05-20 23:30:00,68.7,39.2,29.52,SSE,151,0.0,0.0,34,0.00,,CLR,0.27,VWS V14.01,2013-05-21 04:30:00,
2013-05-20 23:35:00,68.7,40.0,29.52,SSE,150,0.0,0.0,35,0.00,,CLR,0.27,VWS V14.01,2013-05-21 04:35:00,
2013-05-20 23:40:00,68.7,40.0,29.52,SSE,150,0.0,0.0,35,0.00,,CLR,0.27,VWS V14.01,2013-05-21 04:40:00,
2013-05-20 23:46:00,68.5,39.8,29.49,SSE,150,0.0,0.0,35,0.00,,CLR,0.27,VWS V14.01,2013-05-21 04:46:00,
2013-05-20 23:51:00,68.5,39.8,29.49,SSE,150,0.0,0.0,35,0.00,,CLR,0.27,VWS V14.01,2013-05-21 04:51:00,
2013-05-20 23:57:00,68.5,39.8,29.49,SSE,150,0.0,0.0,35,0.00,,CLR,0.27,VWS V14.01,2013-05-21 04:57:00,